Time;durP1;ratioP1;P1;durP2;ratioP2;P2;SDS_P1;SDS_P2;PMS_P1;PMS_P2;Temp;Humidity;BMP_temperature;BMP_pressure;BME280_temperature;BME280_humidity;BME280_pressure;Samples;Min_cycle;Max_cycle;Signal;HPM_P1;HPM_P2
2022/05/24 00:01:17;;;;;;;;;1.75;1.00;;;;;14.82;71.19;99694.72;5035538;28;46205;-77
2022/05/24 00:03:42;;;;;;;;;2.00;1.25;;;;;14.73;70.72;99696.94;5034379;28;45471;-78
2022/05/24 00:06:07;;;;;;;;;3.00;1.00;;;;;14.74;70.92;99704.00;5035403;28;45776;-77
2022/05/24 00:08:33;;;;;;;;;1.00;1.00;;;;;14.73;71.13;99702.25;5027776;28;45591;-77
2022/05/24 00:10:59;;;;;;;;;2.00;2.00;;;;;14.69;71.01;99707.81;5015749;28;46265;-76
2022/05/24 00:13:25;;;;;;;;;2.50;2.50;;;;;14.61;70.96;99713.53;5018910;28;45397;-76
2022/05/24 00:15:51;;;;;;;;;2.00;0.25;;;;;14.58;70.94;99724.28;5017906;28;45462;-76
2022/05/24 00:18:22;;;;;;;;;2.00;2.00;;;;;14.55;71.28;99733.25;5015669;28;45490;-78
2022/05/24 00:20:49;;;;;;;;;0.75;0.75;;;;;14.53;70.92;99744.91;5023608;28;45385;-77
2022/05/24 00:23:17;;;;;;;;;1.00;1.00;;;;;14.47;70.51;99729.25;5034908;28;45517;-77
2022/05/24 00:25:44;;;;;;;;;0.75;0.75;;;;;14.48;70.67;99754.91;5026562;28;45565;-77
2022/05/24 00:28:11;;;;;;;;;1.00;1.00;;;;;14.46;70.20;99756.78;5014486;28;45343;-76
2022/05/24 00:30:38;;;;;;;;;2.00;2.00;;;;;14.42;69.54;99744.59;5021910;28;45343;-77
2022/05/24 00:33:03;;;;;;;;;3.50;1.00;;;;;14.40;69.75;99742.00;5034980;28;45360;-77
2022/05/24 00:35:29;;;;;;;;;2.00;1.00;;;;;14.36;69.64;99733.31;5034014;28;45332;-77
2022/05/24 00:37:54;;;;;;;;;1.00;1.00;;;;;14.35;69.82;99744.88;5031224;28;45363;-78
2022/05/24 00:40:48;;;;;;;;;1.00;1.00;;;;;14.33;70.08;99725.50;5016552;28;45955;-79
2022/05/24 00:43:19;;;;;;;;;1.00;1.00;;;;;14.37;70.07;99711.09;5017788;28;45481;-77
2022/05/24 00:45:51;;;;;;;;;2.50;1.00;;;;;14.32;69.63;99710.47;5027777;28;45355;-77
2022/05/24 00:48:26;;;;;;;;;1.00;1.00;;;;;14.27;70.08;99715.19;5031895;28;45479;-77
2022/05/24 00:50:52;;;;;;;;;1.00;1.00;;;;;14.26;69.70;99712.59;5034121;28;45497;-76
2022/05/24 00:53:37;;;;;;;;;1.25;1.25;;;;;14.27;69.90;99709.84;5033085;28;45354;-76
2022/05/24 00:56:21;;;;;;;;;2.25;1.00;;;;;14.26;69.61;99716.09;5031149;28;45458;-78
2022/05/24 00:59:03;;;;;;;;;2.00;2.00;;;;;14.27;69.53;99709.84;5028615;28;45693;-75
2022/05/24 01:01:40;;;;;;;;;1.00;1.00;;;;;14.26;69.12;99708.13;5013577;28;46332;-78
2022/05/24 01:04:07;;;;;;;;;2.00;2.00;;;;;14.13;68.95;99699.88;5012965;28;45458;-78
2022/05/24 01:06:33;;;;;;;;;2.25;2.00;;;;;14.14;68.97;99725.53;5021576;28;45427;-77
2022/05/24 01:09:03;;;;;;;;;1.50;1.50;;;;;14.13;68.76;99729.09;5031723;28;45379;-78
2022/05/24 01:11:32;;;;;;;;;1.00;1.00;;;;;14.07;68.65;99723.22;5024687;28;46724;-77
2022/05/24 01:14:00;;;;;;;;;0.75;0.75;;;;;14.07;68.96;99728.53;5020938;28;45363;-77
2022/05/24 01:16:25;;;;;;;;;2.25;2.00;;;;;14.07;68.33;99728.53;5019530;28;45495;-77
2022/05/24 01:18:50;;;;;;;;;1.25;1.25;;;;;14.01;68.71;99735.00;5020684;28;45528;-77
2022/05/24 01:21:17;;;;;;;;;2.50;1.00;;;;;13.92;68.63;99717.69;5023610;28;47038;-77
2022/05/24 01:24:07;;;;;;;;;1.00;1.00;;;;;13.91;68.42;99731.06;5020499;28;45462;-77
2022/05/24 01:26:49;;;;;;;;;2.50;2.50;;;;;13.92;68.34;99736.28;5020730;28;45514;-76
2022/05/24 01:29:16;;;;;;;;;1.00;1.00;;;;;13.86;68.99;99732.16;5027253;28;45315;-77
2022/05/24 01:37:11;;;;;;;;;1.50;1.50;;;;;13.91;68.75;99747.00;5020704;28;45371;-78
2022/05/24 01:39:39;;;;;;;;;3.00;1.00;;;;;13.90;68.71;99739.97;5024725;28;45449;-78
2022/05/24 01:42:05;;;;;;;;;1.50;1.00;;;;;13.86;68.49;99736.59;5022154;28;45538;-77
2022/05/24 01:44:40;;;;;;;;;1.00;1.00;;;;;13.91;68.49;99739.03;5026084;28;45508;-77
2022/05/24 01:47:05;;;;;;;;;2.00;0.50;;;;;13.92;68.19;99746.91;5040415;28;45430;-75
2022/05/24 01:49:38;;;;;;;;;1.00;1.00;;;;;13.89;68.35;99738.25;5022440;28;45561;-77
2022/05/24 01:52:12;;;;;;;;;1.00;1.00;;;;;13.92;67.90;99749.56;5019903;28;45986;-77
2022/05/24 01:54:41;;;;;;;;;1.00;1.00;;;;;13.96;68.28;99761.78;5019265;28;45548;-77
2022/05/24 01:57:15;;;;;;;;;1.00;1.00;;;;;13.97;67.91;99760.88;5023807;28;45379;-81
2022/05/24 01:59:44;;;;;;;;;2.00;1.00;;;;;13.81;67.05;99744.75;5028475;28;45407;-81
2022/05/24 02:02:10;;;;;;;;;1.00;1.00;;;;;13.88;67.81;99769.28;5029995;28;45443;-81
2022/05/24 02:04:36;;;;;;;;;0.25;0.25;;;;;13.74;67.54;99742.47;5029486;28;45543;-81
2022/05/24 02:07:14;;;;;;;;;1.50;1.00;;;;;13.85;67.18;99769.41;5024974;28;46528;-80
2022/05/24 02:09:43;;;;;;;;;1.50;0.25;;;;;13.79;67.35;99753.75;5024646;28;45462;-81
2022/05/24 02:12:16;;;;;;;;;0.00;0.00;;;;;13.74;67.65;99759.28;5028720;28;45440;-81
2022/05/24 02:14:50;;;;;;;;;0.75;0.75;;;;;13.75;67.53;99747.72;5024251;28;45483;-80
2022/05/24 02:17:20;;;;;;;;;1.25;0.00;;;;;13.76;67.99;99757.41;5023616;28;45463;-79
2022/05/24 02:19:52;;;;;;;;;0.25;0.25;;;;;13.72;67.58;99754.97;5018954;28;45459;-81
2022/05/24 02:22:22;;;;;;;;;1.00;1.00;;;;;13.70;67.76;99760.34;5019508;28;45653;-81
2022/05/24 02:25:02;;;;;;;;;3.00;0.25;;;;;13.63;67.15;99762.41;5036066;28;45552;-81
2022/05/24 02:27:28;;;;;;;;;1.00;1.00;;;;;13.65;68.08;99752.59;5037830;28;45348;-80
2022/05/24 02:29:54;;;;;;;;;1.00;1.00;;;;;13.61;67.66;99742.19;5021968;28;45325;-80
2022/05/24 02:32:20;;;;;;;;;1.00;1.00;;;;;13.62;67.22;99744.78;5021622;28;45328;-81
2022/05/24 02:34:45;;;;;;;;;1.00;1.00;;;;;13.60;67.41;99751.94;5029334;28;45463;-79
2022/05/24 02:37:11;;;;;;;;;0.00;0.00;;;;;13.61;67.81;99774.03;5040647;28;45249;-80
2022/05/24 02:41:28;;;;;;;;;0.00;0.00;;;;;13.42;68.12;99736.84;5043044;28;45425;-80
2022/05/24 02:42:22;;;;;;;;;0.00;0.00;;;;;13.57;67.86;99753.88;5039028;28;46483;-80
2022/05/24 02:44:47;;;;;;;;;0.75;0.75;;;;;13.61;67.50;99766.09;5030194;28;45523;-79
2022/05/24 02:47:13;;;;;;;;;1.00;1.00;;;;;13.63;68.31;99767.72;5019731;28;45259;-80
2022/05/24 02:49:39;;;;;;;;;1.75;0.00;;;;;13.65;67.73;99760.56;5031017;28;45573;-80
2022/05/24 02:52:04;;;;;;;;;0.00;0.00;;;;;13.62;67.87;99771.31;5018987;28;46097;-80
2022/05/24 02:54:30;;;;;;;;;1.00;1.00;;;;;13.57;68.45;99778.63;5019021;28;45508;-81
2022/05/24 02:56:55;;;;;;;;;0.00;0.00;;;;;13.60;67.81;99778.47;5018830;28;45408;-80
2022/05/24 02:59:21;;;;;;;;;1.00;1.00;;;;;13.58;67.75;99776.84;5017376;28;45423;-81
2022/05/24 03:01:46;;;;;;;;;0.00;0.00;;;;;13.56;67.66;99776.03;5017701;28;46148;-81
2022/05/24 03:04:11;;;;;;;;;1.00;1.00;;;;;13.59;67.54;99782.09;5027041;28;45474;-80
2022/05/24 03:09:54;;;;;;;;;1.00;1.00;;;;;13.55;67.73;99788.44;5035372;28;45476;-80
2022/05/24 03:14:56;;;;;;;;;2.00;1.00;;;;;13.49;67.96;99788.72;5023839;28;45409;-81
2022/05/24 03:17:22;;;;;;;;;2.00;1.00;;;;;13.49;67.77;99791.38;5017538;28;45431;-80
2022/05/24 03:19:49;;;;;;;;;2.00;1.00;;;;;13.45;67.81;99792.44;5018104;28;45374;-81
2022/05/24 03:22:15;;;;;;;;;0.50;0.50;;;;;13.45;68.56;99795.09;5019190;28;45592;-81
2022/05/24 03:24:40;;;;;;;;;1.00;1.00;;;;;13.43;68.49;99799.63;5018546;28;45463;-80
2022/05/24 03:27:16;;;;;;;;;0.00;0.00;;;;;13.39;67.95;99800.66;5029610;28;45381;-80
2022/05/24 03:29:43;;;;;;;;;1.00;1.00;;;;;13.38;68.62;99809.59;5038192;28;45415;-80
2022/05/24 03:32:10;;;;;;;;;0.00;0.00;;;;;13.36;68.02;99817.63;5035042;28;46050;-81
2022/05/24 03:34:36;;;;;;;;;0.50;0.50;;;;;13.36;69.05;99820.28;5037928;28;45371;-80
2022/05/24 03:37:02;;;;;;;;;1.00;0.00;;;;;13.37;68.52;99818.47;5043757;28;45503;-80
2022/05/24 03:39:27;;;;;;;;;1.00;1.00;;;;;13.37;67.71;99821.97;5040996;28;45508;-80
2022/05/24 03:41:52;;;;;;;;;0.75;0.75;;;;;13.32;68.65;99821.28;5038643;28;45533;-81
2022/05/24 03:44:19;;;;;;;;;0.00;0.00;;;;;13.31;68.25;99816.91;5039655;28;45455;-80
2022/05/24 03:46:45;;;;;;;;;1.00;1.00;;;;;13.21;67.82;99813.78;5036266;28;45408;-79
2022/05/24 03:49:10;;;;;;;;;1.00;1.00;;;;;13.24;68.32;99826.03;5036932;28;45420;-80
2022/05/24 03:51:36;;;;;;;;;1.50;0.00;;;;;13.21;68.23;99828.84;5037385;28;45927;-80
2022/05/24 03:54:01;;;;;;;;;0.50;0.50;;;;;13.20;69.13;99841.25;5036905;28;45546;-81
2022/05/24 03:56:27;;;;;;;;;0.00;0.00;;;;;13.20;68.92;99843.03;5028974;28;45679;-80
2022/05/24 03:58:52;;;;;;;;;0.75;0.75;;;;;13.19;68.52;99842.16;5019160;28;45245;-79
2022/05/24 04:01:17;;;;;;;;;2.00;0.50;;;;;13.14;68.78;99841.50;5018282;28;45336;-82
2022/05/24 04:03:43;;;;;;;;;1.75;0.25;;;;;13.15;69.03;99854.72;5016236;28;45359;-80
2022/05/24 04:06:08;;;;;;;;;0.25;0.25;;;;;13.12;69.07;99843.38;5023894;28;45228;-81
2022/05/24 04:08:34;;;;;;;;;0.25;0.25;;;;;13.13;68.61;99858.34;5023427;28;45273;-81
2022/05/24 04:11:08;;;;;;;;;1.00;1.00;;;;;13.10;68.88;99847.84;5034383;28;46325;-80
2022/05/24 04:13:35;;;;;;;;;0.50;0.50;;;;;13.09;69.33;99854.97;5022208;28;45314;-82
2022/05/24 04:16:01;;;;;;;;;1.00;1.00;;;;;13.10;68.98;99867.31;5033255;28;45442;-80
2022/05/24 04:18:28;;;;;;;;;2.25;1.00;;;;;13.00;68.98;99846.50;5018971;28;45281;-80
2022/05/24 04:20:54;;;;;;;;;0.00;0.00;;;;;13.11;69.00;99862.88;5026181;28;45563;-81
2022/05/24 04:23:21;;;;;;;;;1.00;1.00;;;;;13.10;68.15;99855.81;5037587;28;45477;-81
2022/05/24 04:25:47;;;;;;;;;1.00;1.00;;;;;13.06;68.37;99852.44;5036787;28;45451;-81
2022/05/24 04:28:13;;;;;;;;;0.00;0.00;;;;;13.14;69.09;99862.72;5024027;28;45501;-80
2022/05/24 04:30:38;;;;;;;;;0.00;0.00;;;;;13.14;68.38;99860.09;5031936;28;46664;-82
2022/05/24 04:33:04;;;;;;;;;2.00;0.00;;;;;13.17;68.09;99853.78;5038624;28;45444;-81
2022/05/24 04:35:30;;;;;;;;;0.50;0.50;;;;;13.24;67.98;99876.47;5046134;28;45359;-81
2022/05/24 04:37:55;;;;;;;;;1.00;1.00;;;;;13.33;67.86;99870.78;5044844;28;45357;-82
2022/05/24 04:42:18;;;;;;;;;0.00;0.00;;;;;13.50;67.43;99878.06;5023555;28;45917;-81
2022/05/24 04:43:06;;;;;;;;;1.50;0.00;;;;;14.12;65.84;99880.63;5031871;28;45257;-82
2022/05/24 04:45:31;;;;;;;;;0.75;0.75;;;;;14.37;64.20;99889.19;5044950;28;45539;-81
2022/05/24 04:47:57;;;;;;;;;0.00;0.00;;;;;14.92;63.16;99892.84;5041414;28;45394;-80
2022/05/24 04:50:22;;;;;;;;;0.75;0.50;;;;;15.59;60.85;99893.06;5022477;28;45466;-81
2022/05/24 04:52:47;;;;;;;;;2.00;1.00;;;;;16.21;58.76;99881.88;5017738;28;45475;-81
2022/05/24 04:55:14;;;;;;;;;0.25;0.00;;;;;16.85;56.55;99886.31;5018775;28;44939;-81
2022/05/24 04:57:40;;;;;;;;;1.25;1.00;;;;;17.38;55.57;99880.63;5016715;28;45602;-81
2022/05/24 05:00:13;;;;;;;;;0.50;0.00;;;;;17.80;53.20;99889.69;5022504;28;46627;-82
2022/05/24 05:02:39;;;;;;;;;1.75;1.00;;;;;18.45;52.47;99888.41;5037076;28;45537;-81
2022/05/24 05:05:05;;;;;;;;;1.00;1.00;;;;;19.05;50.65;99895.22;5044149;28;45455;-81
2022/05/24 05:07:30;;;;;;;;;0.25;0.25;;;;;19.43;49.69;99901.69;5041064;28;45359;-83
2022/05/24 05:09:57;;;;;;;;;1.00;0.25;;;;;19.73;47.93;99892.53;5027075;28;45900;-81
2022/05/24 05:12:25;;;;;;;;;0.50;0.50;;;;;20.05;47.47;99907.25;5017288;28;45471;-81
2022/05/24 05:14:50;;;;;;;;;0.00;0.00;;;;;20.58;46.23;99899.00;5014773;28;45349;-81
2022/05/24 05:17:18;;;;;;;;;0.50;0.00;;;;;21.02;44.80;99896.75;5016815;28;45510;-81
2022/05/24 05:19:44;;;;;;;;;0.00;0.00;;;;;21.59;43.90;99897.00;5022200;28;46257;-81
2022/05/24 05:22:10;;;;;;;;;0.00;0.00;;;;;22.10;42.55;99909.22;5032396;28;45403;-81
2022/05/24 05:24:35;;;;;;;;;0.00;0.00;;;;;22.60;42.52;99911.56;5019719;28;45522;-82
2022/05/24 05:27:01;;;;;;;;;0.25;0.25;;;;;23.01;40.90;99915.41;5032739;28;45339;-80
2022/05/24 05:32:17;;;;;;;;;1.00;1.00;;;;;23.73;39.24;99916.59;5019583;28;45308;-81
2022/05/24 05:34:43;;;;;;;;;2.00;0.50;;;;;23.01;39.71;99921.66;5021638;28;45464;-82
2022/05/24 05:37:09;;;;;;;;;0.00;0.00;;;;;22.89;40.20;99920.81;5019025;28;45398;-83
2022/05/24 05:39:36;;;;;;;;;0.00;0.00;;;;;22.13;41.37;99942.09;5021027;28;46332;-82
2022/05/24 05:42:01;;;;;;;;;0.00;0.00;;;;;21.47;42.45;99920.31;5017545;28;45414;-82
2022/05/24 05:44:27;;;;;;;;;1.00;1.00;;;;;20.97;43.25;99941.91;5016046;28;45592;-82
2022/05/24 05:46:53;;;;;;;;;0.00;0.00;;;;;20.48;44.59;99938.25;5015740;28;45340;-82
2022/05/24 05:49:18;;;;;;;;;0.00;0.00;;;;;20.13;45.35;99924.63;5021257;28;46287;-83
2022/05/24 05:51:44;;;;;;;;;0.00;0.00;;;;;20.77;44.08;99933.47;5036893;28;45501;-83
2022/05/24 05:54:09;;;;;;;;;1.00;0.75;;;;;21.24;43.63;99948.88;5038561;28;45396;-82
2022/05/24 05:56:35;;;;;;;;;1.75;0.50;;;;;20.99;43.59;99956.06;5027972;28;45334;-81
2022/05/24 05:59:00;;;;;;;;;0.00;0.00;;;;;20.75;43.84;99959.56;5022445;28;48224;-82
2022/05/24 06:01:29;;;;;;;;;2.00;1.00;;;;;20.32;44.50;99951.88;5022907;28;45416;-82
2022/05/24 06:03:56;;;;;;;;;0.00;0.00;;;;;19.76;45.76;99959.31;5025823;28;45446;-81
2022/05/24 06:06:24;;;;;;;;;0.00;0.00;;;;;19.79;46.32;99964.50;5022946;28;45376;-81
2022/05/24 06:08:50;;;;;;;;;1.00;1.00;;;;;20.12;45.66;99968.50;5019633;28;45457;-81
2022/05/24 06:11:15;;;;;;;;;0.00;0.00;;;;;21.00;43.91;99949.75;5019556;28;45353;-82
2022/05/24 06:13:41;;;;;;;;;0.75;0.75;;;;;21.54;42.00;99961.03;5028525;28;45205;-81
2022/05/24 06:16:08;;;;;;;;;2.00;0.00;;;;;22.07;41.93;99952.50;5019456;28;45333;-81
2022/05/24 06:18:36;;;;;;;;;1.00;1.00;;;;;22.89;40.15;99966.59;5039745;28;45541;-82
2022/05/24 06:21:01;;;;;;;;;2.00;1.00;;;;;23.57;38.83;99963.75;5032659;28;45407;-82
2022/05/24 06:23:26;;;;;;;;;0.00;0.00;;;;;24.31;38.10;99970.13;5037520;28;45431;-81
2022/05/24 06:25:52;;;;;;;;;0.00;0.00;;;;;24.77;36.73;99959.84;5036122;28;45581;-80
2022/05/24 06:28:17;;;;;;;;;0.75;0.75;;;;;25.36;36.09;99975.22;5028384;28;45331;-84
2022/05/24 06:30:44;;;;;;;;;0.50;0.50;;;;;25.43;35.13;99977.34;5019851;28;45347;-82
2022/05/24 06:33:10;;;;;;;;;0.00;0.00;;;;;25.83;34.19;99973.66;5023859;28;45270;-82
2022/05/24 06:35:38;;;;;;;;;0.50;0.00;;;;;26.17;34.17;99978.63;5032304;28;45296;-79
2022/05/24 06:38:04;;;;;;;;;0.00;0.00;;;;;26.58;34.25;99979.19;5042660;28;45330;-87
2022/05/24 06:40:29;;;;;;;;;0.00;0.00;;;;;26.80;32.72;99982.56;5037207;28;45481;-82
2022/05/24 06:42:55;;;;;;;;;1.00;1.00;;;;;27.05;32.39;99981.84;5030981;28;45372;-83
2022/05/24 06:45:21;;;;;;;;;0.00;0.00;;;;;27.29;32.11;99983.13;5019651;28;45498;-82
2022/05/24 06:47:46;;;;;;;;;1.50;0.75;;;;;27.38;31.61;99990.38;5017073;28;46189;-83
2022/05/24 06:50:13;;;;;;;;;0.00;0.00;;;;;27.53;31.42;99995.25;5018524;28;45536;-82
2022/05/24 06:52:39;;;;;;;;;0.00;0.00;;;;;27.71;31.38;99988.00;5020940;28;45441;-80
2022/05/24 06:55:06;;;;;;;;;0.50;0.50;;;;;28.18;30.38;99976.84;5020930;28;45351;-82
2022/05/24 06:57:31;;;;;;;;;0.00;0.00;;;;;28.10;30.69;100001.22;5024066;28;45490;-81
2022/05/24 07:02:40;;;;;;;;;0.00;0.00;;;;;27.63;30.54;99994.19;5026315;28;45446;-83
2022/05/24 07:05:18;;;;;;;;;0.00;0.00;;;;;27.44;31.40;100010.63;5030223;28;45642;-83
2022/05/24 07:07:43;;;;;;;;;0.00;0.00;;;;;26.69;31.87;100008.88;5024364;28;45493;-81
2022/05/24 07:10:12;;;;;;;;;0.75;0.75;;;;;26.63;32.58;100022.09;5025991;28;45501;-82
2022/05/24 07:12:38;;;;;;;;;2.00;0.00;;;;;26.74;32.46;100030.09;5031294;28;45849;-82
2022/05/24 07:15:04;;;;;;;;;1.00;1.00;;;;;27.34;31.32;100023.41;5033258;28;45544;-83
2022/05/24 07:17:30;;;;;;;;;2.25;0.00;;;;;26.90;32.84;100033.00;5024074;28;45408;-82
2022/05/24 07:19:55;;;;;;;;;1.00;0.00;;;;;26.50;32.14;100033.28;5021592;28;45410;-81
2022/05/24 07:22:20;;;;;;;;;0.75;0.75;;;;;26.22;32.73;100034.06;5020398;28;45286;-82
2022/05/24 07:24:49;;;;;;;;;1.00;0.00;;;;;25.66;34.62;100037.44;5031961;28;45504;-82
2022/05/24 07:27:19;;;;;;;;;0.00;0.00;;;;;24.83;34.01;100024.13;5032044;28;47024;-82
2022/05/24 07:29:45;;;;;;;;;1.25;0.25;;;;;24.05;35.81;100047.94;5043406;28;45520;-82
2022/05/24 07:32:11;;;;;;;;;1.50;1.00;;;;;23.55;36.35;100043.06;5032763;28;45322;-83
2022/05/24 07:34:37;;;;;;;;;0.00;0.00;;;;;23.09;36.90;100053.09;5038330;28;45417;-82
2022/05/24 07:37:05;;;;;;;;;2.75;1.00;;;;;23.27;37.05;100048.03;5035431;28;45475;-77
2022/05/24 07:39:32;;;;;;;;;0.00;0.00;;;;;23.07;37.12;100046.94;5036144;28;45393;-81
2022/05/24 07:47:33;;;;;;;;;0.00;0.00;;;;;23.20;36.50;100047.69;5036155;28;45368;-82
2022/05/24 07:50:02;;;;;;;;;0.00;0.00;;;;;23.03;37.86;100042.78;5031667;28;45577;-84
2022/05/24 07:52:28;;;;;;;;;0.00;0.00;;;;;24.10;37.88;100043.88;5034875;28;45555;-83
2022/05/24 07:55:15;;;;;;;;;0.00;0.00;;;;;24.53;35.69;100054.66;5308061;22;46174;-83
2022/05/24 07:57:40;;;;;;;;;0.00;0.00;;;;;23.74;35.83;100004.63;5029066;28;46064;-82
2022/05/24 08:00:07;;;;;;;;;1.00;1.00;;;;;23.56;36.19;100058.28;5022379;28;45432;-80
2022/05/24 08:02:32;;;;;;;;;0.25;0.00;;;;;23.04;37.55;100072.28;5024484;28;45436;-81
2022/05/24 08:04:57;;;;;;;;;1.00;0.00;;;;;23.27;37.73;100055.28;5027989;28;45397;-81
2022/05/24 08:07:23;;;;;;;;;0.00;0.00;;;;;24.11;37.23;100045.59;5031920;28;46096;-82
2022/05/24 08:09:48;;;;;;;;;0.00;0.00;;;;;24.81;34.59;100053.16;5030948;28;45439;-82
2022/05/24 08:12:14;;;;;;;;;0.00;0.00;;;;;24.88;34.23;100050.75;5029088;28;45619;-82
2022/05/24 08:14:39;;;;;;;;;0.00;0.00;;;;;24.50;33.86;100058.47;5024309;28;45572;-81
2022/05/24 08:17:04;;;;;;;;;0.00;0.00;;;;;24.39;34.59;100048.59;5021104;28;45352;-81
2022/05/24 08:19:30;;;;;;;;;0.00;0.00;;;;;24.57;33.67;100019.16;5012199;28;46148;-82
2022/05/24 08:21:55;;;;;;;;;1.00;1.00;;;;;24.93;32.76;100057.47;5031446;28;45471;-81
2022/05/24 08:24:21;;;;;;;;;2.00;1.00;;;;;24.60;33.18;100059.44;5021730;28;45549;-83
2022/05/24 08:26:46;;;;;;;;;0.00;0.00;;;;;24.97;32.87;100053.47;5028599;28;47591;-82
2022/05/24 08:29:11;;;;;;;;;0.00;0.00;;;;;25.04;32.36;100042.13;5027304;28;45437;-81
2022/05/24 08:31:37;;;;;;;;;1.75;1.00;;;;;25.27;32.19;100032.81;5029472;28;45563;-83
2022/05/24 08:34:02;;;;;;;;;0.75;0.00;;;;;25.11;32.32;100040.59;5017835;28;45578;-82
2022/05/24 08:36:28;;;;;;;;;1.75;0.00;;;;;24.96;32.19;100037.41;5010002;28;45510;-82
2022/05/24 08:38:53;;;;;;;;;0.25;0.25;;;;;25.58;32.11;100050.81;5025327;28;45468;-81
2022/05/24 08:41:37;;;;;;;;;3.00;1.00;;;;;26.27;32.00;100051.69;5019579;28;45376;-81
2022/05/24 08:49:57;;;;;;;;;0.00;0.00;;;;;27.27;29.36;100031.22;5035130;28;45507;-81
2022/05/24 08:52:25;;;;;;;;;0.50;0.50;;;;;27.82;29.81;100039.31;5006073;28;45457;-81
2022/05/24 08:54:51;;;;;;;;;0.00;0.00;;;;;28.02;28.11;100038.34;5006395;28;45420;-81
2022/05/24 08:57:24;;;;;;;;;0.00;0.00;;;;;28.41;28.16;100057.81;5026493;28;45463;-81
2022/05/24 08:59:58;;;;;;;;;0.00;0.00;;;;;28.67;27.86;100057.00;5026324;28;45499;-82
2022/05/24 09:02:24;;;;;;;;;0.75;0.75;;;;;28.50;29.11;100056.00;5027632;28;45533;-82
2022/05/24 09:04:50;;;;;;;;;1.75;0.00;;;;;28.70;27.29;100029.50;5023416;28;45616;-77
2022/05/24 09:07:31;;;;;;;;;0.50;0.50;;;;;29.17;27.07;100053.50;5015630;28;46373;-78
2022/05/24 09:10:06;;;;;;;;;0.75;0.75;;;;;29.27;26.88;100044.38;5017757;28;45443;-78
2022/05/24 09:12:38;;;;;;;;;0.00;0.00;;;;;29.62;26.37;100042.44;5008025;28;45431;-79
2022/05/24 09:15:39;;;;;;;;;0.00;0.00;;;;;29.73;26.46;100053.84;5027965;28;45571;-77
2022/05/24 09:18:29;;;;;;;;;0.75;0.75;;;;;29.02;26.09;100052.44;4990567;28;45566;-78
2022/05/24 09:20:55;;;;;;;;;1.75;0.00;;;;;28.48;26.53;100049.88;4998450;28;45518;-78
2022/05/24 09:23:29;;;;;;;;;1.00;0.00;;;;;27.92;27.22;100065.53;5003079;28;45512;-78
2022/05/24 09:25:59;;;;;;;;;1.00;1.00;;;;;28.11;27.32;100059.97;5000228;28;45444;-77
2022/05/24 09:28:50;;;;;;;;;1.00;0.00;;;;;28.17;27.01;100063.91;5009904;28;45582;-78
2022/05/24 09:31:21;;;;;;;;;0.75;0.75;;;;;28.48;27.91;100060.75;4999960;28;45562;-78
2022/05/24 09:33:54;;;;;;;;;0.50;0.50;;;;;28.59;26.83;100067.78;5004709;28;45425;-78
2022/05/24 09:36:39;;;;;;;;;1.00;0.00;;;;;28.11;26.79;100059.13;5011678;28;45613;-78
2022/05/24 09:39:26;;;;;;;;;1.75;0.00;;;;;27.34;27.53;100064.91;4991053;28;46229;-79
2022/05/24 09:42:01;;;;;;;;;0.25;0.25;;;;;26.67;28.27;100081.31;5007143;28;45563;-77
2022/05/24 09:44:55;;;;;;;;;2.00;1.00;;;;;26.89;29.28;100071.09;4994487;28;45515;-78
2022/05/24 09:47:46;;;;;;;;;0.00;0.00;;;;;27.27;28.49;100078.22;4937408;28;45516;-77
2022/05/24 09:50:15;;;;;;;;;0.00;0.00;;;;;27.79;28.08;100072.19;4928861;28;46799;-78
2022/05/24 09:52:42;;;;;;;;;1.50;0.25;;;;;27.78;27.45;100072.34;4954530;28;45629;-77
2022/05/24 09:55:07;;;;;;;;;1.00;1.00;;;;;27.26;28.39;100073.78;4945254;28;45441;-79
2022/05/24 09:57:33;;;;;;;;;0.00;0.00;;;;;26.59;29.36;100079.28;4961959;28;45624;-79
2022/05/24 10:00:22;;;;;;;;;1.00;0.00;;;;;25.79;28.69;100085.88;4969290;28;46475;-78
2022/05/24 10:02:48;;;;;;;;;0.25;0.00;;;;;25.24;30.75;100089.00;4959846;28;45463;-78
2022/05/24 10:05:21;;;;;;;;;1.25;0.25;;;;;25.28;29.80;100083.19;4955169;28;45395;-78
2022/05/24 10:08:00;;;;;;;;;0.00;0.00;;;;;24.97;30.39;100082.34;4957823;28;45649;-79
2022/05/24 10:10:32;;;;;;;;;0.25;0.00;;;;;24.75;31.18;100096.88;4954655;28;48032;-80
2022/05/24 10:13:19;;;;;;;;;0.75;0.75;;;;;24.60;31.07;100094.53;4962901;28;45563;-79
2022/05/24 10:15:52;;;;;;;;;0.00;0.00;;;;;24.24;31.35;100088.56;4959144;28;45576;-79
2022/05/24 10:18:39;;;;;;;;;2.00;0.00;;;;;24.07;32.78;100098.09;4962824;28;45528;-82
2022/05/24 10:21:29;;;;;;;;;1.00;0.50;;;;;23.61;31.46;100101.91;4969307;28;46462;-82
2022/05/24 10:24:19;;;;;;;;;0.00;0.00;;;;;23.30;32.94;100093.63;4992744;28;45366;-81
2022/05/24 10:27:01;;;;;;;;;0.25;0.00;;;;;23.09;33.49;100111.50;5036121;28;45545;-84
2022/05/24 10:29:35;;;;;;;;;1.00;1.00;;;;;22.80;34.06;100093.09;5041135;28;45458;-83
2022/05/24 10:38:17;;;;;;;;;0.00;0.00;;;;;22.87;34.25;100099.72;5020581;28;45585;-83
2022/05/24 10:38:17;;;;;;;;;0.00;0.00;;;;;23.01;33.74;100107.56;5021037;28;45578;-82
2022/05/24 10:41:08;;;;;;;;;1.50;1.50;;;;;22.74;33.46;100110.59;5016767;28;45480;-82
2022/05/24 10:43:55;;;;;;;;;0.00;0.00;;;;;22.49;34.29;100107.13;5011861;28;46219;-82
2022/05/24 10:46:34;;;;;;;;;0.00;0.00;;;;;22.29;34.23;100097.00;5021359;28;45549;-83
2022/05/24 10:49:21;;;;;;;;;0.00;0.00;;;;;22.41;34.91;100112.25;5015644;28;45522;-78
2022/05/24 10:51:48;;;;;;;;;0.50;0.50;;;;;22.30;34.26;100114.88;5021253;28;45469;-78
2022/05/24 10:54:28;;;;;;;;;3.00;0.50;;;;;22.24;34.15;100105.44;5016439;28;45514;-78
2022/05/24 10:57:04;;;;;;;;;0.00;0.00;;;;;22.23;33.96;100095.66;5024197;28;45499;-79
2022/05/24 10:59:36;;;;;;;;;2.00;2.00;;;;;22.14;34.41;100110.66;5030282;28;45296;-77
2022/05/24 11:02:14;;;;;;;;;1.00;1.00;;;;;21.98;35.61;100112.78;5019170;28;45697;-76
2022/05/24 11:04:46;;;;;;;;;0.00;0.00;;;;;21.90;36.07;100109.84;5023751;28;45442;-76
2022/05/24 11:07:17;;;;;;;;;0.75;0.75;;;;;21.89;35.60;100110.78;5019830;28;45506;-77
2022/05/24 11:09:54;;;;;;;;;0.50;0.50;;;;;21.81;37.11;100117.59;5019738;28;45501;-81
2022/05/24 11:12:26;;;;;;;;;0.00;0.00;;;;;21.54;35.95;100111.56;5016931;28;45583;-77
2022/05/24 11:15:01;;;;;;;;;0.00;0.00;;;;;21.53;35.31;100107.16;5011622;28;45419;-78
2022/05/24 11:17:26;;;;;;;;;0.25;0.25;;;;;21.88;35.63;100109.94;5022361;28;45691;-78
2022/05/24 11:19:55;;;;;;;;;0.00;0.00;;;;;22.35;34.10;100113.59;5027264;28;45592;-78
2022/05/24 11:22:28;;;;;;;;;0.00;0.00;;;;;22.51;33.54;100113.25;5015406;28;45738;-79
2022/05/24 11:25:11;;;;;;;;;0.00;0.00;;;;;22.31;33.91;100111.25;5019742;28;45522;-82
2022/05/24 11:27:43;;;;;;;;;0.00;0.00;;;;;22.17;33.66;100099.66;5015708;28;45384;-83
2022/05/24 11:30:25;;;;;;;;;1.00;1.00;;;;;22.06;34.38;100101.44;5023610;28;45442;-83
2022/05/24 11:33:07;;;;;;;;;1.00;1.00;;;;;21.84;35.17;100086.94;5017948;28;45344;-83
2022/05/24 11:35:39;;;;;;;;;1.25;0.25;;;;;21.83;35.96;100096.84;5011810;28;46094;-83
2022/05/24 11:38:10;;;;;;;;;1.00;0.00;;;;;21.94;35.49;100113.97;5003790;28;45321;-80
2022/05/24 11:40:56;;;;;;;;;0.00;0.00;;;;;21.82;34.54;100096.97;5022338;28;45576;-77
2022/05/24 11:43:43;;;;;;;;;0.00;0.00;;;;;21.82;34.72;100107.72;5017855;28;45431;-76
2022/05/24 11:46:30;;;;;;;;;0.00;0.00;;;;;22.07;35.57;100108.56;5017060;28;46155;-77
2022/05/24 11:48:57;;;;;;;;;2.00;0.25;;;;;22.54;35.17;100096.00;5022814;28;45599;-80
2022/05/24 11:51:36;;;;;;;;;0.00;0.00;;;;;22.70;34.02;100099.22;5028976;28;45707;-79
2022/05/24 11:54:29;;;;;;;;;1.25;1.25;;;;;22.67;34.22;100093.22;5019934;28;45502;-77
2022/05/24 11:57:14;;;;;;;;;1.00;1.00;;;;;22.76;34.66;100092.50;5023097;28;46697;-78
2022/05/24 11:59:40;;;;;;;;;0.50;0.50;;;;;22.75;33.95;100088.09;5017790;28;45517;-76
2022/05/24 12:02:21;;;;;;;;;0.75;0.75;;;;;22.73;34.17;100098.13;5012210;28;45448;-79
2022/05/24 12:08:07;;;;;;;;;0.00;0.00;;;;;22.34;35.29;100094.88;5014328;28;45268;-77
2022/05/24 12:10:44;;;;;;;;;0.00;0.00;;;;;22.11;34.01;100102.81;5009086;28;45479;-79
2022/05/24 12:13:27;;;;;;;;;0.25;0.25;;;;;21.94;34.68;100101.41;5019731;28;45439;-80
2022/05/24 12:15:56;;;;;;;;;1.25;0.00;;;;;21.85;34.00;100099.41;5018865;28;45592;-81
2022/05/24 12:18:37;;;;;;;;;0.00;0.00;;;;;21.80;35.16;100102.44;5020956;28;46251;-79